sensor_id;sensor_type;location;lat;lon;timestamp;pressure;altitude;pressure_sealevel;temperature;humidity
10008;BME280;5043;41.766;26.204;2023-12-07T00:01:37;100691.31;;;7.95;100.00
10008;BME280;5043;41.766;26.204;2023-12-07T00:04:03;100676.97;;;7.86;100.00
10008;BME280;5043;41.766;26.204;2023-12-07T00:06:29;100708.59;;;7.99;100.00
10008;BME280;5043;41.766;26.204;2023-12-07T00:08:55;100703.50;;;7.96;100.00
10008;BME280;5043;41.766;26.204;2023-12-07T00:11:24;100712.88;;;8.00;100.00
10008;BME280;5043;41.766;26.204;2023-12-07T00:13:49;100693.94;;;7.95;100.00
10008;BME280;5043;41.766;26.204;2023-12-07T00:16:15;100706.81;;;7.99;100.00
10008;BME280;5043;41.766;26.204;2023-12-07T00:18:40;100708.78;;;7.96;100.00
10008;BME280;5043;41.766;26.204;2023-12-07T00:21:08;100712.16;;;7.98;100.00
10008;BME280;5043;41.766;26.204;2023-12-07T00:23:34;100708.78;;;7.96;100.00
10008;BME280;5043;41.766;26.204;2023-12-07T00:25:59;100705.88;;;8.00;100.00
10008;BME280;5043;41.766;26.204;2023-12-07T00:28:25;100686.44;;;7.89;100.00
10008;BME280;5043;41.766;26.204;2023-12-07T00:30:50;100717.22;;;8.01;100.00
10008;BME280;5043;41.766;26.204;2023-12-07T00:33:15;100700.59;;;8.00;100.00
10008;BME280;5043;41.766;26.204;2023-12-07T00:35:42;100711.13;;;8.00;100.00
10008;BME280;5043;41.766;26.204;2023-12-07T00:38:08;100695.53;;;7.97;100.00
10008;BME280;5043;41.766;26.204;2023-12-07T00:40:34;100714.59;;;8.01;100.00
10008;BME280;5043;41.766;26.204;2023-12-07T00:43:02;100708.78;;;7.96;100.00
10008;BME280;5043;41.766;26.204;2023-12-07T00:45:28;100720.03;;;7.98;100.00
10008;BME280;5043;41.766;26.204;2023-12-07T00:47:54;100706.88;;;7.98;100.00
10008;BME280;5043;41.766;26.204;2023-12-07T00:50:19;100713.16;;;7.95;100.00
10008;BME280;5043;41.766;26.204;2023-12-07T00:52:45;100668.72;;;7.78;100.00
10008;BME280;5043;41.766;26.204;2023-12-07T00:55:10;100717.03;;;8.04;100.00
10008;BME280;5043;41.766;26.204;2023-12-07T00:57:36;100706.03;;;7.97;100.00
10008;BME280;5043;41.766;26.204;2023-12-07T01:00:01;100721.63;;;8.00;100.00
10008;BME280;5043;41.766;26.204;2023-12-07T01:02:27;100678.56;;;7.75;100.00
10008;BME280;5043;41.766;26.204;2023-12-07T01:04:52;100698.81;;;7.87;100.00
10008;BME280;5043;41.766;26.204;2023-12-07T01:07:18;100716.00;;;7.92;100.00
10008;BME280;5043;41.766;26.204;2023-12-07T01:09:43;100713.09;;;7.97;100.00
10008;BME280;5043;41.766;26.204;2023-12-07T01:12:09;100708.94;;;7.93;100.00
10008;BME280;5043;41.766;26.204;2023-12-07T01:14:34;100709.06;;;7.91;100.00
10008;BME280;5043;41.766;26.204;2023-12-07T01:17:00;100705.69;;;7.89;100.00
10008;BME280;5043;41.766;26.204;2023-12-07T01:19:25;100710.94;;;7.89;100.00
10008;BME280;5043;41.766;26.204;2023-12-07T01:21:51;100708.41;;;7.74;100.00
10008;BME280;5043;41.766;26.204;2023-12-07T01:24:16;100702.94;;;7.77;100.00
10008;BME280;5043;41.766;26.204;2023-12-07T01:26:42;100713.66;;;7.74;100.00
10008;BME280;5043;41.766;26.204;2023-12-07T01:29:08;100703.16;;;7.74;100.00
10008;BME280;5043;41.766;26.204;2023-12-07T01:31:33;100705.38;;;7.80;100.00
10008;BME280;5043;41.766;26.204;2023-12-07T01:33:59;100697.22;;;7.84;100.00
10008;BME280;5043;41.766;26.204;2023-12-07T01:36:25;100659.31;;;7.60;100.00
10008;BME280;5043;41.766;26.204;2023-12-07T01:38:50;100538.81;;;6.85;100.00
10008;BME280;5043;41.766;26.204;2023-12-07T01:41:15;100707.28;;;7.78;100.00
10008;BME280;5043;41.766;26.204;2023-12-07T01:43:47;100686.41;;;7.60;100.00
10008;BME280;5043;41.766;26.204;2023-12-07T01:46:14;100698.91;;;7.71;100.00
10008;BME280;5043;41.766;26.204;2023-12-07T01:48:40;100701.25;;;7.61;100.00
10008;BME280;5043;41.766;26.204;2023-12-07T01:51:06;100683.91;;;7.59;100.00
10008;BME280;5043;41.766;26.204;2023-12-07T01:53:32;100701.25;;;7.61;100.00
10008;BME280;5043;41.766;26.204;2023-12-07T01:55:59;100692.63;;;7.59;100.00
10008;BME280;5043;41.766;26.204;2023-12-07T01:58:24;100693.94;;;7.52;100.00
10008;BME280;5043;41.766;26.204;2023-12-07T02:00:50;100688.84;;;7.49;100.00
10008;BME280;5043;41.766;26.204;2023-12-07T02:03:17;100693.06;;;7.52;100.00
10008;BME280;5043;41.766;26.204;2023-12-07T02:05:43;100701.28;;;7.46;100.00
10008;BME280;5043;41.766;26.204;2023-12-07T02:08:11;100704.03;;;7.44;100.00
10008;BME280;5043;41.766;26.204;2023-12-07T02:10:37;100698.06;;;7.27;100.00
10008;BME280;5043;41.766;26.204;2023-12-07T02:13:02;100700.06;;;7.37;100.00
10008;BME280;5043;41.766;26.204;2023-12-07T02:15:29;100697.63;;;7.34;100.00
10008;BME280;5043;41.766;26.204;2023-12-07T02:23:19;100700.19;;;7.20;100.00
10008;BME280;5043;41.766;26.204;2023-12-07T02:26:05;100734.56;;;7.16;100.00
10008;BME280;5043;41.766;26.204;2023-12-07T02:28:32;100711.81;;;7.16;100.00
10008;BME280;5043;41.766;26.204;2023-12-07T02:30:57;100698.00;;;6.99;100.00
10008;BME280;5043;41.766;26.204;2023-12-07T02:33:23;100717.50;;;7.09;100.00
10008;BME280;5043;41.766;26.204;2023-12-07T02:35:48;100712.38;;;6.91;100.00
10008;BME280;5043;41.766;26.204;2023-12-07T02:38:14;100705.69;;;6.86;100.00
10008;BME280;5043;41.766;26.204;2023-12-07T02:40:42;100713.41;;;6.89;100.00
10008;BME280;5043;41.766;26.204;2023-12-07T02:43:10;100691.50;;;6.74;100.00
10008;BME280;5043;41.766;26.204;2023-12-07T02:45:36;100703.06;;;6.86;100.00
10008;BME280;5043;41.766;26.204;2023-12-07T02:48:01;100694.97;;;6.75;100.00
10008;BME280;5043;41.766;26.204;2023-12-07T02:50:27;100644.94;;;6.48;100.00
10008;BME280;5043;41.766;26.204;2023-12-07T02:52:52;100703.59;;;6.77;100.00
10008;BME280;5043;41.766;26.204;2023-12-07T02:55:18;100699.44;;;6.73;100.00
10008;BME280;5043;41.766;26.204;2023-12-07T02:57:44;100685.19;;;6.63;100.00
10008;BME280;5043;41.766;26.204;2023-12-07T03:00:09;100704.63;;;6.74;100.00
10008;BME280;5043;41.766;26.204;2023-12-07T03:02:38;100703.59;;;6.77;100.00
10008;BME280;5043;41.766;26.204;2023-12-07T03:05:05;100698.34;;;6.77;100.00
10008;BME280;5043;41.766;26.204;2023-12-07T03:07:32;100676.56;;;6.61;100.00
10008;BME280;5043;41.766;26.204;2023-12-07T03:09:58;100687.88;;;6.61;100.00
10008;BME280;5043;41.766;26.204;2023-12-07T03:12:24;100695.25;;;6.70;100.00
10008;BME280;5043;41.766;26.204;2023-12-07T03:14:49;100689.22;;;6.68;100.00
10008;BME280;5043;41.766;26.204;2023-12-07T03:17:15;100671.81;;;6.52;100.00
10008;BME280;5043;41.766;26.204;2023-12-07T03:19:41;100681.94;;;6.73;100.00
10008;BME280;5043;41.766;26.204;2023-12-07T03:22:07;100694.19;;;6.73;100.00
10008;BME280;5043;41.766;26.204;2023-12-07T03:24:34;100698.69;;;6.71;100.00
10008;BME280;5043;41.766;26.204;2023-12-07T03:26:59;100703.75;;;6.74;100.00
10008;BME280;5043;41.766;26.204;2023-12-07T03:29:25;100698.09;;;6.66;100.00
10008;BME280;5043;41.766;26.204;2023-12-07T03:31:51;100688.72;;;6.62;100.00
10008;BME280;5043;41.766;26.204;2023-12-07T03:34:16;100688.56;;;6.65;100.00
10008;BME280;5043;41.766;26.204;2023-12-07T03:36:48;100705.47;;;6.75;100.00
10008;BME280;5043;41.766;26.204;2023-12-07T03:39:15;100694.66;;;6.65;100.00
10008;BME280;5043;41.766;26.204;2023-12-07T03:41:41;100719.13;;;6.80;100.00
10008;BME280;5043;41.766;26.204;2023-12-07T03:44:06;100704.19;;;6.66;100.00
10008;BME280;5043;41.766;26.204;2023-12-07T03:46:32;100723.19;;;6.85;100.00
10008;BME280;5043;41.766;26.204;2023-12-07T03:48:58;100713.56;;;6.86;100.00
10008;BME280;5043;41.766;26.204;2023-12-07T03:51:26;100723.88;;;6.89;100.00
10008;BME280;5043;41.766;26.204;2023-12-07T03:53:52;100717.09;;;6.85;100.00
10008;BME280;5043;41.766;26.204;2023-12-07T03:56:30;100714.69;;;6.82;100.00
10008;BME280;5043;41.766;26.204;2023-12-07T03:58:56;100724.31;;;6.81;100.00
10008;BME280;5043;41.766;26.204;2023-12-07T04:01:26;100716.69;;;6.77;100.00
10008;BME280;5043;41.766;26.204;2023-12-07T04:03:53;100705.72;;;6.70;100.00
10008;BME280;5043;41.766;26.204;2023-12-07T04:06:20;100692.28;;;6.61;100.00
10008;BME280;5043;41.766;26.204;2023-12-07T04:08:46;100722.97;;;6.74;100.00
10008;BME280;5043;41.766;26.204;2023-12-07T04:11:12;100726.16;;;6.64;100.00
10008;BME280;5043;41.766;26.204;2023-12-07T04:13:38;100722.53;;;6.66;100.00
10008;BME280;5043;41.766;26.204;2023-12-07T04:16:04;100735.47;;;6.69;100.00
10008;BME280;5043;41.766;26.204;2023-12-07T04:18:29;100711.69;;;6.57;100.00
10008;BME280;5043;41.766;26.204;2023-12-07T04:20:55;100727.59;;;6.69;100.00
10008;BME280;5043;41.766;26.204;2023-12-07T04:23:20;100726.25;;;6.62;100.00
10008;BME280;5043;41.766;26.204;2023-12-07T04:25:46;100727.69;;;6.68;100.00
10008;BME280;5043;41.766;26.204;2023-12-07T04:28:11;100725.00;;;6.69;100.00
10008;BME280;5043;41.766;26.204;2023-12-07T04:30:37;100711.88;;;6.69;100.00
10008;BME280;5043;41.766;26.204;2023-12-07T04:33:03;100719.06;;;6.66;100.00
10008;BME280;5043;41.766;26.204;2023-12-07T04:35:30;100730.13;;;6.71;100.00
10008;BME280;5043;41.766;26.204;2023-12-07T04:37:55;100739.00;;;6.68;100.00
10008;BME280;5043;41.766;26.204;2023-12-07T04:40:21;100695.91;;;6.43;100.00
10008;BME280;5043;41.766;26.204;2023-12-07T04:42:46;100732.84;;;6.69;100.00
10008;BME280;5043;41.766;26.204;2023-12-07T04:45:12;100711.69;;;6.57;100.00
10008;BME280;5043;41.766;26.204;2023-12-07T04:47:37;100732.09;;;6.67;100.00
10008;BME280;5043;41.766;26.204;2023-12-07T04:50:03;100730.13;;;6.71;100.00
10008;BME280;5043;41.766;26.204;2023-12-07T04:52:28;100726.09;;;6.65;100.00
10008;BME280;5043;41.766;26.204;2023-12-07T04:54:54;100736.97;;;6.73;100.00
10008;BME280;5043;41.766;26.204;2023-12-07T04:57:19;100732.94;;;6.68;100.00
10008;BME280;5043;41.766;26.204;2023-12-07T04:59:45;100718.31;;;6.64;100.00
10008;BME280;5043;41.766;26.204;2023-12-07T05:02:14;100730.31;;;6.68;100.00
10008;BME280;5043;41.766;26.204;2023-12-07T05:04:40;100728.47;;;6.70;100.00
10008;BME280;5043;41.766;26.204;2023-12-07T05:07:05;100732.69;;;6.72;100.00
10008;BME280;5043;41.766;26.204;2023-12-07T05:09:31;100692.25;;;6.45;100.00
10008;BME280;5043;41.766;26.204;2023-12-07T05:11:56;100729.72;;;6.63;100.00
10008;BME280;5043;41.766;26.204;2023-12-07T05:14:22;100725.16;;;6.51;100.00
10008;BME280;5043;41.766;26.204;2023-12-07T05:16:48;100750.09;;;6.58;100.00
10008;BME280;5043;41.766;26.204;2023-12-07T05:19:20;100744.69;;;6.61;100.00
10008;BME280;5043;41.766;26.204;2023-12-07T05:21:48;100733.44;;;6.59;100.00
10008;BME280;5043;41.766;26.204;2023-12-07T05:24:15;100749.59;;;6.67;100.00
10008;BME280;5043;41.766;26.204;2023-12-07T05:26:44;100741.28;;;6.59;100.00
10008;BME280;5043;41.766;26.204;2023-12-07T05:29:13;100743.84;;;6.60;100.00
10008;BME280;5043;41.766;26.204;2023-12-07T05:31:39;100704.19;;;6.35;100.00
10008;BME280;5043;41.766;26.204;2023-12-07T05:34:05;100744.25;;;6.53;100.00
10008;BME280;5043;41.766;26.204;2023-12-07T05:36:31;100641.22;;;5.90;100.00
10008;BME280;5043;41.766;26.204;2023-12-07T05:38:57;100728.59;;;6.36;100.00
10008;BME280;5043;41.766;26.204;2023-12-07T05:41:22;100750.75;;;6.46;100.00
10008;BME280;5043;41.766;26.204;2023-12-07T05:43:48;100745.53;;;6.46;100.00
10008;BME280;5043;41.766;26.204;2023-12-07T05:46:14;100751.34;;;6.51;100.00
10008;BME280;5043;41.766;26.204;2023-12-07T05:48:39;100737.91;;;6.41;100.00
10008;BME280;5043;41.766;26.204;2023-12-07T05:51:16;100759.72;;;6.57;100.00
10008;BME280;5043;41.766;26.204;2023-12-07T05:53:42;100768.94;;;6.64;100.00
10008;BME280;5043;41.766;26.204;2023-12-07T05:56:07;100745.88;;;6.55;100.00
10008;BME280;5043;41.766;26.204;2023-12-07T05:58:33;100735.53;;;6.52;100.00
10008;BME280;5043;41.766;26.204;2023-12-07T06:01:00;100762.94;;;6.78;100.00
10008;BME280;5043;41.766;26.204;2023-12-07T06:03:25;100780.53;;;6.76;100.00
10008;BME280;5043;41.766;26.204;2023-12-07T06:05:51;100772.91;;;6.87;100.00
10008;BME280;5043;41.766;26.204;2023-12-07T06:08:17;100765.16;;;6.85;100.00
10008;BME280;5043;41.766;26.204;2023-12-07T06:10:43;100762.25;;;6.90;100.00
10008;BME280;5043;41.766;26.204;2023-12-07T06:13:08;100764.28;;;6.85;100.00
10008;BME280;5043;41.766;26.204;2023-12-07T06:15:34;100781.88;;;6.83;100.00
10008;BME280;5043;41.766;26.204;2023-12-07T06:17:59;100774.53;;;6.89;100.00
10008;BME280;5043;41.766;26.204;2023-12-07T06:20:25;100708.50;;;6.52;100.00
10008;BME280;5043;41.766;26.204;2023-12-07T06:22:51;100784.84;;;6.92;100.00
10008;BME280;5043;41.766;26.204;2023-12-07T06:25:16;100772.09;;;6.86;100.00
10008;BME280;5043;41.766;26.204;2023-12-07T06:27:42;100785.19;;;7.02;100.00
10008;BME280;5043;41.766;26.204;2023-12-07T06:30:07;100788.72;;;7.01;100.00
10008;BME280;5043;41.766;26.204;2023-12-07T06:32:33;100792.69;;;7.08;100.00
10008;BME280;5043;41.766;26.204;2023-12-07T06:34:59;100791.28;;;7.03;100.00
10008;BME280;5043;41.766;26.204;2023-12-07T06:37:25;100770.56;;;6.98;100.00
10008;BME280;5043;41.766;26.204;2023-12-07T06:39:51;100748.41;;;6.88;100.00
10008;BME280;5043;41.766;26.204;2023-12-07T06:42:17;100758.88;;;7.04;100.00
10008;BME280;5043;41.766;26.204;2023-12-07T06:44:45;100783.63;;;7.29;100.00
10008;BME280;5043;41.766;26.204;2023-12-07T06:47:11;100783.78;;;7.42;100.00
10008;BME280;5043;41.766;26.204;2023-12-07T06:49:37;100766.41;;;7.39;100.00
10008;BME280;5043;41.766;26.204;2023-12-07T06:52:03;100773.53;;;7.37;100.00
10008;BME280;5043;41.766;26.204;2023-12-07T06:54:29;100786.34;;;7.57;100.00
10008;BME280;5043;41.766;26.204;2023-12-07T06:56:55;100792.72;;;7.53;100.00
10008;BME280;5043;41.766;26.204;2023-12-07T06:59:20;100797.44;;;7.62;100.00
10008;BME280;5043;41.766;26.204;2023-12-07T07:01:46;100807.53;;;7.54;100.00
10008;BME280;5043;41.766;26.204;2023-12-07T07:04:11;100809.25;;;7.40;100.00
10008;BME280;5043;41.766;26.204;2023-12-07T07:06:39;100811.94;;;7.54;100.00
10008;BME280;5043;41.766;26.204;2023-12-07T07:09:05;100807.72;;;7.51;100.00
10008;BME280;5043;41.766;26.204;2023-12-07T07:11:30;100815.00;;;7.46;100.00
10008;BME280;5043;41.766;26.204;2023-12-07T07:13:56;100821.00;;;7.48;100.00
10008;BME280;5043;41.766;26.204;2023-12-07T07:16:22;100811.09;;;7.53;100.00
10008;BME280;5043;41.766;26.204;2023-12-07T07:18:48;100813.72;;;7.53;100.00
10008;BME280;5043;41.766;26.204;2023-12-07T07:21:13;100818.16;;;7.67;100.00
10008;BME280;5043;41.766;26.204;2023-12-07T07:23:39;100813.22;;;7.77;100.00
10008;BME280;5043;41.766;26.204;2023-12-07T07:26:04;100814.63;;;7.68;100.00
10008;BME280;5043;41.766;26.204;2023-12-07T07:28:30;100821.84;;;7.79;100.00
10008;BME280;5043;41.766;26.204;2023-12-07T07:30:56;100811.59;;;7.90;100.00
10008;BME280;5043;41.766;26.204;2023-12-07T07:33:22;100821.63;;;7.97;100.00
10008;BME280;5043;41.766;26.204;2023-12-07T07:35:47;100813.09;;;7.94;100.00
10008;BME280;5043;41.766;26.204;2023-12-07T07:38:13;100810.72;;;7.89;100.00
10008;BME280;5043;41.766;26.204;2023-12-07T07:40:40;100819.19;;;7.94;100.00
10008;BME280;5043;41.766;26.204;2023-12-07T07:43:07;100816.34;;;7.97;100.00
10008;BME280;5043;41.766;26.204;2023-12-07T07:45:32;100817.03;;;8.01;100.00
10008;BME280;5043;41.766;26.204;2023-12-07T07:47:58;100814.41;;;8.01;100.00
10008;BME280;5043;41.766;26.204;2023-12-07T07:50:24;100811.41;;;8.07;100.00
10008;BME280;5043;41.766;26.204;2023-12-07T07:52:49;100814.59;;;8.12;100.00
10008;BME280;5043;41.766;26.204;2023-12-07T07:55:15;100828.31;;;8.17;100.00
10008;BME280;5043;41.766;26.204;2023-12-07T07:57:41;100833.66;;;8.01;100.00
10008;BME280;5043;41.766;26.204;2023-12-07T08:00:08;100822.28;;;8.01;100.00
10008;BME280;5043;41.766;26.204;2023-12-07T08:02:34;100836.31;;;8.15;100.00
10008;BME280;5043;41.766;26.204;2023-12-07T08:05:02;100839.31;;;8.23;100.00
10008;BME280;5043;41.766;26.204;2023-12-07T08:07:28;100836.44;;;8.28;100.00
10008;BME280;5043;41.766;26.204;2023-12-07T08:09:54;100809.63;;;8.07;100.00
10008;BME280;5043;41.766;26.204;2023-12-07T08:12:19;100823.78;;;8.05;100.00
10008;BME280;5043;41.766;26.204;2023-12-07T08:14:48;100834.31;;;8.19;100.00
10008;BME280;5043;41.766;26.204;2023-12-07T08:17:14;100834.59;;;8.14;100.00
10008;BME280;5043;41.766;26.204;2023-12-07T08:19:42;100837.44;;;8.25;100.00
10008;BME280;5043;41.766;26.204;2023-12-07T08:22:08;100843.00;;;8.35;100.00
10008;BME280;5043;41.766;26.204;2023-12-07T08:24:34;100849.97;;;8.36;100.00
10008;BME280;5043;41.766;26.204;2023-12-07T08:27:00;100836.53;;;8.41;100.00
10008;BME280;5043;41.766;26.204;2023-12-07T08:29:26;100846.97;;;8.56;100.00
10008;BME280;5043;41.766;26.204;2023-12-07T08:31:52;100836.16;;;8.47;100.00
10008;BME280;5043;41.766;26.204;2023-12-07T08:34:18;100829.69;;;8.38;100.00
10008;BME280;5043;41.766;26.204;2023-12-07T08:36:43;100838.50;;;8.51;100.00
10008;BME280;5043;41.766;26.204;2023-12-07T08:39:09;100852.22;;;8.56;100.00
10008;BME280;5043;41.766;26.204;2023-12-07T08:41:35;100832.78;;;8.59;100.00
10008;BME280;5043;41.766;26.204;2023-12-07T08:44:02;100824.72;;;8.62;100.00
10008;BME280;5043;41.766;26.204;2023-12-07T08:46:28;100843.97;;;8.76;100.00
10008;BME280;5043;41.766;26.204;2023-12-07T08:48:54;100837.88;;;8.62;100.00
10008;BME280;5043;41.766;26.204;2023-12-07T08:51:21;100835.97;;;8.78;100.00
10008;BME280;5043;41.766;26.204;2023-12-07T08:53:47;100865.63;;;8.94;100.00
10008;BME280;5043;41.766;26.204;2023-12-07T08:56:13;100832.88;;;8.85;100.00
10008;BME280;5043;41.766;26.204;2023-12-07T08:58:39;100854.75;;;9.00;100.00
10008;BME280;5043;41.766;26.204;2023-12-07T09:01:05;100854.09;;;8.82;100.00
10008;BME280;5043;41.766;26.204;2023-12-07T09:03:31;100841.81;;;8.69;100.00
10008;BME280;5043;41.766;26.204;2023-12-07T09:06:00;100838.88;;;8.73;100.00
10008;BME280;5043;41.766;26.204;2023-12-07T09:08:26;100861.69;;;8.87;100.00
10008;BME280;5043;41.766;26.204;2023-12-07T09:10:52;100850.31;;;8.86;100.00
10008;BME280;5043;41.766;26.204;2023-12-07T09:13:18;100851.72;;;8.92;100.00
10008;BME280;5043;41.766;26.204;2023-12-07T09:15:45;100848.06;;;8.94;100.00
10008;BME280;5043;41.766;26.204;2023-12-07T09:18:11;100838.47;;;8.93;100.00
10008;BME280;5043;41.766;26.204;2023-12-07T09:20:37;100840.81;;;8.98;100.00
10008;BME280;5043;41.766;26.204;2023-12-07T09:23:11;100825.63;;;8.89;100.00
10008;BME280;5043;41.766;26.204;2023-12-07T09:25:38;100835.28;;;9.03;100.00
10008;BME280;5043;41.766;26.204;2023-12-07T09:28:04;100836.41;;;8.98;100.00
10008;BME280;5043;41.766;26.204;2023-12-07T09:30:30;100839.47;;;9.05;100.00
10008;BME280;5043;41.766;26.204;2023-12-07T09:32:55;100840.91;;;9.11;100.00
10008;BME280;5043;41.766;26.204;2023-12-07T09:35:21;100844.22;;;9.00;100.00
10008;BME280;5043;41.766;26.204;2023-12-07T09:37:48;100838.19;;;8.98;100.00
10008;BME280;5043;41.766;26.204;2023-12-07T09:40:18;100835.75;;;9.09;100.00
10008;BME280;5043;41.766;26.204;2023-12-07T09:42:46;100831.66;;;9.18;100.00
10008;BME280;5043;41.766;26.204;2023-12-07T09:45:12;100834.84;;;9.23;100.00
10008;BME280;5043;41.766;26.204;2023-12-07T09:47:40;100830.16;;;9.40;100.00
10008;BME280;5043;41.766;26.204;2023-12-07T09:50:08;100832.13;;;9.51;100.00
10008;BME280;5043;41.766;26.204;2023-12-07T09:52:37;100826.91;;;9.63;100.00
10008;BME280;5043;41.766;26.204;2023-12-07T09:55:03;100821.84;;;9.73;100.00
10008;BME280;5043;41.766;26.204;2023-12-07T09:57:29;100795.72;;;9.70;100.00
10008;BME280;5043;41.766;26.204;2023-12-07T09:59:55;100831.19;;;9.91;100.00
10008;BME280;5043;41.766;26.204;2023-12-07T10:02:21;100831.38;;;9.88;100.00
10008;BME280;5043;41.766;26.204;2023-12-07T10:04:47;100805.91;;;9.62;100.00
10008;BME280;5043;41.766;26.204;2023-12-07T10:07:13;100811.72;;;9.67;100.00
10008;BME280;5043;41.766;26.204;2023-12-07T10:09:39;100808.16;;;9.81;100.00
10008;BME280;5043;41.766;26.204;2023-12-07T10:12:06;100804.59;;;9.94;100.00
10008;BME280;5043;41.766;26.204;2023-12-07T10:14:32;100797.91;;;10.15;100.00
10008;BME280;5043;41.766;26.204;2023-12-07T10:16:59;100783.47;;;10.33;100.00
10008;BME280;5043;41.766;26.204;2023-12-07T10:19:26;100780.81;;;10.21;100.00
10008;BME280;5043;41.766;26.204;2023-12-07T10:21:53;100781.84;;;10.44;100.00
10008;BME280;5043;41.766;26.204;2023-12-07T10:24:24;100782.59;;;10.58;100.00
10008;BME280;5043;41.766;26.204;2023-12-07T10:26:51;100790.94;;;10.88;100.00
10008;BME280;5043;41.766;26.204;2023-12-07T10:29:20;100790.03;;;11.13;100.00
10008;BME280;5043;41.766;26.204;2023-12-07T10:31:48;100784.94;;;11.23;100.00
10008;BME280;5043;41.766;26.204;2023-12-07T10:34:17;100789.00;;;11.03;100.00
10008;BME280;5043;41.766;26.204;2023-12-07T10:36:46;100788.72;;;10.95;100.00
10008;BME280;5043;41.766;26.204;2023-12-07T10:39:12;100785.97;;;10.96;100.00
10008;BME280;5043;41.766;26.204;2023-12-07T10:41:38;100782.00;;;11.15;100.00
10008;BME280;5043;41.766;26.204;2023-12-07T10:44:09;100774.09;;;11.02;100.00
10008;BME280;5043;41.766;26.204;2023-12-07T10:46:37;100765.84;;;11.06;100.00
10008;BME280;5043;41.766;26.204;2023-12-07T10:49:07;100769.47;;;11.05;100.00
10008;BME280;5043;41.766;26.204;2023-12-07T10:51:56;100771.81;;;10.97;100.00
10008;BME280;5043;41.766;26.204;2023-12-07T10:54:40;100773.06;;;11.04;100.00
10008;BME280;5043;41.766;26.204;2023-12-07T10:57:08;100768.28;;;11.10;100.00
10008;BME280;5043;41.766;26.204;2023-12-07T10:59:35;100770.06;;;10.85;100.00
10008;BME280;5043;41.766;26.204;2023-12-07T11:02:21;100749.91;;;10.84;100.00
10008;BME280;5043;41.766;26.204;2023-12-07T11:04:47;100758.19;;;11.03;100.00
10008;BME280;5043;41.766;26.204;2023-12-07T11:07:17;100744.91;;;11.16;100.00
10008;BME280;5043;41.766;26.204;2023-12-07T11:09:47;100757.94;;;11.30;100.00
10008;BME280;5043;41.766;26.204;2023-12-07T11:12:29;100754.81;;;11.25;100.00
10008;BME280;5043;41.766;26.204;2023-12-07T11:14:56;100737.16;;;10.78;100.00
10008;BME280;5043;41.766;26.204;2023-12-07T11:17:22;100748.84;;;10.87;100.00
10008;BME280;5043;41.766;26.204;2023-12-07T11:19:48;100751.88;;;10.93;100.00
10008;BME280;5043;41.766;26.204;2023-12-07T11:22:14;100748.94;;;11.09;100.00
10008;BME280;5043;41.766;26.204;2023-12-07T11:27:19;100742.78;;;10.97;100.00
10008;BME280;5043;41.766;26.204;2023-12-07T11:29:46;100710.19;;;10.86;100.00
10008;BME280;5043;41.766;26.204;2023-12-07T11:32:13;100743.63;;;10.98;100.00
10008;BME280;5043;41.766;26.204;2023-12-07T11:34:41;100740.25;;;10.96;100.00
10008;BME280;5043;41.766;26.204;2023-12-07T11:37:08;100735.50;;;11.01;100.00
10008;BME280;5043;41.766;26.204;2023-12-07T11:39:39;100729.41;;;11.12;100.00
10008;BME280;5043;41.766;26.204;2023-12-07T11:42:19;100740.31;;;11.07;100.00
10008;BME280;5043;41.766;26.204;2023-12-07T11:44:49;100740.63;;;10.79;100.00
10008;BME280;5043;41.766;26.204;2023-12-07T11:47:17;100741.66;;;10.89;100.00
10008;BME280;5043;41.766;26.204;2023-12-07T11:49:44;100743.97;;;10.93;100.00
10008;BME280;5043;41.766;26.204;2023-12-07T11:52:19;100729.56;;;10.74;100.00
10008;BME280;5043;41.766;26.204;2023-12-07T11:54:49;100749.25;;;10.93;100.00
10008;BME280;5043;41.766;26.204;2023-12-07T11:57:15;100749.03;;;10.96;100.00
10008;BME280;5043;41.766;26.204;2023-12-07T11:59:43;100739.41;;;10.95;100.00
10008;BME280;5043;41.766;26.204;2023-12-07T12:02:13;100733.94;;;10.86;100.00
10008;BME280;5043;41.766;26.204;2023-12-07T12:04:40;100734.00;;;10.73;100.00
10008;BME280;5043;41.766;26.204;2023-12-07T12:07:06;100735.31;;;10.91;100.00
10008;BME280;5043;41.766;26.204;2023-12-07T12:09:32;100740.41;;;10.82;100.00
10008;BME280;5043;41.766;26.204;2023-12-07T12:11:59;100732.13;;;10.63;100.00
10008;BME280;5043;41.766;26.204;2023-12-07T12:14:26;100738.47;;;10.60;100.00
10008;BME280;5043;41.766;26.204;2023-12-07T12:16:53;100697.47;;;10.44;100.00
10008;BME280;5043;41.766;26.204;2023-12-07T12:19:18;100735.59;;;10.76;100.00
10008;BME280;5043;41.766;26.204;2023-12-07T12:21:45;100729.31;;;10.53;100.00
10008;BME280;5043;41.766;26.204;2023-12-07T12:24:12;100721.13;;;10.32;100.00
10008;BME280;5043;41.766;26.204;2023-12-07T12:26:41;100740.97;;;10.38;100.00
10008;BME280;5043;41.766;26.204;2023-12-07T12:29:08;100737.22;;;10.53;100.00
10008;BME280;5043;41.766;26.204;2023-12-07T12:31:34;100740.25;;;10.60;100.00
10008;BME280;5043;41.766;26.204;2023-12-07T12:34:01;100737.19;;;10.66;100.00
10008;BME280;5043;41.766;26.204;2023-12-07T12:36:28;100748.78;;;10.76;100.00
10008;BME280;5043;41.766;26.204;2023-12-07T12:38:55;100727.16;;;10.71;100.00
10008;BME280;5043;41.766;26.204;2023-12-07T12:41:22;100743.78;;;10.84;100.00
10008;BME280;5043;41.766;26.204;2023-12-07T12:43:49;100742.28;;;10.92;100.00
10008;BME280;5043;41.766;26.204;2023-12-07T12:46:15;100741.50;;;11.03;100.00
10008;BME280;5043;41.766;26.204;2023-12-07T12:49:03;100744.97;;;10.80;100.00
10008;BME280;5043;41.766;26.204;2023-12-07T12:51:30;100742.00;;;10.84;100.00
10008;BME280;5043;41.766;26.204;2023-12-07T12:54:00;100746.19;;;10.87;100.00